Time;durP1;ratioP1;P1;durP2;ratioP2;P2;SDS_P1;SDS_P2;PMS_P1;PMS_P2;Temp;Humidity;BMP_temperature;BMP_pressure;BME280_temperature;BME280_humidity;BME280_pressure;Samples;Min_cycle;Max_cycle;Signal;HPM_P1;HPM_P2
2023/03/14 00:00:12;;;;;;;0.50;0.50;;;;;;;10.51;44.13;99137.69;5305654;26;31522;-82
2023/03/14 00:02:40;;;;;;;0.55;0.55;;;;;;;10.45;44.11;99136.25;5306273;26;34381;-81
2023/03/14 00:05:11;;;;;;;0.90;0.90;;;;;;;10.60;43.83;99136.34;5305483;26;33817;-82
2023/03/14 00:07:39;;;;;;;0.43;0.43;;;;;;;10.42;44.26;99125.84;5323866;26;33807;-82
2023/03/14 00:10:12;;;;;;;1.50;0.62;;;;;;;10.56;43.99;99116.31;5304374;26;32879;-84
2023/03/14 00:12:42;;;;;;;0.60;0.60;;;;;;;10.62;43.91;99113.34;5323783;26;33659;-82
2023/03/14 00:15:11;;;;;;;1.75;1.45;;;;;;;10.58;43.87;99106.53;5324244;26;34796;-82
2023/03/14 00:17:39;;;;;;;0.10;0.10;;;;;;;10.37;44.50;99098.84;5305235;26;34366;-82
2023/03/14 00:20:11;;;;;;;1.08;1.08;;;;;;;10.27;44.62;99102.06;5305284;26;32434;-82
2023/03/14 00:22:41;;;;;;;1.37;1.27;;;;;;;9.98;45.24;99097.38;5324621;26;34621;-82
2023/03/14 00:25:10;;;;;;;0.50;0.50;;;;;;;10.37;44.32;99084.78;5287980;26;32857;-83
2023/03/14 00:27:38;;;;;;;0.13;0.13;;;;;;;10.15;45.12;99095.59;5305637;26;34486;-82
2023/03/14 00:30:07;;;;;;;0.50;0.50;;;;;;;10.36;44.55;99091.03;5323542;26;33344;-82
2023/03/14 00:32:36;;;;;;;0.62;0.62;;;;;;;10.42;44.61;99094.16;5305313;26;32692;-82
2023/03/14 00:35:05;;;;;;;0.77;0.77;;;;;;;10.29;44.67;99072.00;5306206;26;35459;-83
2023/03/14 00:37:33;;;;;;;0.30;0.30;;;;;;;10.02;45.33;99082.25;5324281;26;34424;-84
2023/03/14 00:40:05;;;;;;;0.88;0.77;;;;;;;10.36;44.57;99070.75;5305574;26;33355;-84
2023/03/14 00:42:33;;;;;;;0.00;0.00;;;;;;;10.27;45.12;99060.69;5324664;26;34782;-82
2023/03/14 00:45:01;;;;;;;5.62;1.60;;;;;;;10.38;44.46;99062.75;5305633;26;33146;-82
2023/03/14 00:47:28;;;;;;;0.00;0.00;;;;;;;10.41;44.56;99052.88;5304770;26;32879;-83
2023/03/14 00:49:57;;;;;;;2.58;0.55;;;;;;;10.49;44.24;99069.16;5305350;26;32254;-82
2023/03/14 00:52:24;;;;;;;1.98;1.20;;;;;;;10.21;45.40;99061.00;5305132;26;33323;-84
2023/03/14 00:54:52;;;;;;;0.98;0.98;;;;;;;10.17;45.48;99043.63;5304460;26;33629;-82
2023/03/14 00:57:20;;;;;;;0.80;0.80;;;;;;;10.36;44.83;99047.00;5287119;26;33149;-82
2023/03/14 00:59:48;;;;;;;2.50;1.77;;;;;;;10.40;44.65;99053.81;5304808;26;32981;-84
2023/03/14 01:02:15;;;;;;;12.50;0.65;;;;;;;10.20;45.19;99059.28;5305221;26;33424;-84
2023/03/14 01:04:43;;;;;;;1.23;1.23;;;;;;;10.37;44.87;99059.25;5305013;26;34569;-82
2023/03/14 01:07:11;;;;;;;1.50;1.10;;;;;;;10.41;44.55;99046.75;5304311;26;32728;-81
2023/03/14 01:09:38;;;;;;;3.87;2.78;;;;;;;10.31;44.72;99048.19;5305563;26;33235;-81
2023/03/14 01:12:08;;;;;;;0.68;0.45;;;;;;;10.28;44.66;99051.84;5306163;26;34635;-82
2023/03/14 01:14:36;;;;;;;0.70;0.70;;;;;;;10.32;44.67;99042.81;5305285;26;32511;-81
2023/03/14 01:17:05;;;;;;;3.65;0.73;;;;;;;10.12;45.20;99043.88;5287144;26;32650;-82
2023/03/14 01:19:33;;;;;;;3.33;0.70;;;;;;;10.33;44.93;99033.97;5323064;26;33374;-83
2023/03/14 01:22:01;;;;;;;0.47;0.47;;;;;;;10.29;44.89;99016.59;5305135;26;34657;-82
2023/03/14 01:24:29;;;;;;;3.10;1.12;;;;;;;10.16;45.02;99026.06;5286722;26;32695;-81
2023/03/14 01:26:57;;;;;;;0.73;0.73;;;;;;;10.36;44.76;99015.34;5323112;26;32859;-83
2023/03/14 01:29:25;;;;;;;0.82;0.75;;;;;;;10.14;45.22;99012.13;5322364;26;32304;-81
2023/03/14 01:31:53;;;;;;;0.90;0.75;;;;;;;10.43;44.55;98992.94;5320898;26;33589;-83
2023/03/14 01:34:21;;;;;;;0.05;0.05;;;;;;;10.20;45.05;98982.78;5339428;26;34665;-83
2023/03/14 01:36:49;;;;;;;1.83;1.27;;;;;;;10.14;45.24;98980.47;5304427;26;33527;-83
2023/03/14 01:39:19;;;;;;;0.80;0.80;;;;;;;10.07;46.11;98968.56;5304928;26;33438;-82
2023/03/14 01:41:48;;;;;;;0.65;0.65;;;;;;;10.28;45.30;98979.75;5304352;26;33856;-83
2023/03/14 01:44:19;;;;;;;0.88;0.50;;;;;;;10.40;44.75;98977.28;5305027;26;33962;-83
2023/03/14 01:46:48;;;;;;;0.55;0.55;;;;;;;10.02;46.03;98966.19;5305546;26;32870;-85
2023/03/14 01:49:30;;;;;;;0.00;0.00;;;;;;;10.13;45.57;98952.41;5305347;26;31847;-84
2023/03/14 01:52:11;;;;;;;0.95;0.93;;;;;;;10.31;45.13;98940.00;5305137;26;33773;-84
2023/03/14 01:54:42;;;;;;;0.55;0.55;;;;;;;10.30;45.30;98938.28;5323147;26;32935;-85
2023/03/14 01:57:17;;;;;;;1.60;1.50;;;;;;;10.07;45.52;98942.19;5323596;26;33494;-84
2023/03/14 02:00:11;;;;;;;1.23;1.05;;;;;;;9.72;47.01;98937.03;5324016;26;34019;-84
2023/03/14 02:02:42;;;;;;;0.77;0.77;;;;;;;9.81;46.66;98936.53;5305897;26;33675;-84
2023/03/14 02:05:11;;;;;;;2.72;1.73;;;;;;;9.47;47.42;98943.63;5323559;26;32894;-84
2023/03/14 02:07:56;;;;;;;1.70;1.10;;;;;;;9.47;47.60;98937.50;5324025;26;33675;-84
2023/03/14 02:10:30;;;;;;;1.80;1.70;;;;;;;9.60;47.31;98930.66;5287235;26;32613;-84
2023/03/14 02:13:01;;;;;;;0.40;0.40;;;;;;;9.75;46.99;98928.97;5305143;26;33114;-85
2023/03/14 02:15:29;;;;;;;2.08;1.95;;;;;;;9.92;46.65;98931.56;5305577;26;34524;-85
2023/03/14 02:17:58;;;;;;;1.50;1.45;;;;;;;9.80;47.07;98924.31;5304983;26;33488;-84
2023/03/14 02:20:52;;;;;;;1.17;0.82;;;;;;;9.69;47.30;98932.81;5341742;26;33498;-85
2023/03/14 02:24:07;;;;;;;1.85;1.75;;;;;;;9.38;47.96;98920.41;5322525;26;32514;-85
2023/03/14 02:26:41;;;;;;;0.57;0.57;;;;;;;9.40;48.24;98905.38;5333026;26;33769;-85
2023/03/14 02:29:10;;;;;;;0.22;0.10;;;;;;;9.05;49.15;98909.84;5286785;26;34552;-84
2023/03/14 02:31:38;;;;;;;0.35;0.28;;;;;;;9.04;49.22;98902.87;5287441;26;32724;-85
2023/03/14 02:34:06;;;;;;;1.15;1.05;;;;;;;9.35;48.77;98901.25;5323624;26;33582;-85
2023/03/14 02:36:34;;;;;;;0.00;0.00;;;;;;;9.43;48.44;98888.53;5305505;26;32626;-85
2023/03/14 02:39:13;;;;;;;1.23;1.17;;;;;;;9.36;49.01;98890.66;5287188;26;33020;-85
2023/03/14 02:41:44;;;;;;;0.08;0.08;;;;;;;9.36;49.00;98895.94;5323514;26;33154;-85
2023/03/14 02:44:12;;;;;;;1.37;1.27;;;;;;;9.38;49.00;98874.75;5304992;26;33666;-84
2023/03/14 02:46:40;;;;;;;2.20;1.55;;;;;;;9.61;48.42;98884.06;5287342;26;33060;-84
2023/03/14 02:49:10;;;;;;;0.65;0.65;;;;;;;9.46;48.45;98889.22;5342215;26;34676;-84
2023/03/14 02:51:39;;;;;;;0.40;0.40;;;;;;;9.87;47.61;98879.97;5305897;26;32707;-85
2023/03/14 02:54:08;;;;;;;1.42;0.70;;;;;;;9.95;47.38;98864.59;5306518;26;33882;-84
2023/03/14 02:56:36;;;;;;;0.57;0.57;;;;;;;9.84;47.65;98869.62;5287558;26;34374;-83
2023/03/14 02:59:05;;;;;;;0.57;0.57;;;;;;;9.88;47.87;98866.75;5324584;26;33929;-83
2023/03/14 03:01:34;;;;;;;0.30;0.30;;;;;;;9.88;47.80;98858.81;5287339;26;33923;-83
2023/03/14 03:04:02;;;;;;;0.10;0.10;;;;;;;9.96;47.73;98871.56;5323129;26;33062;-83
2023/03/14 03:06:31;;;;;;;1.05;1.05;;;;;;;10.05;47.71;98852.59;5324199;26;33945;-84
2023/03/14 03:09:00;;;;;;;1.80;1.35;;;;;;;10.06;47.51;98856.06;5305612;26;34181;-84
2023/03/14 03:11:28;;;;;;;0.65;0.65;;;;;;;10.12;47.43;98847.84;5305632;26;33783;-84
2023/03/14 03:13:55;;;;;;;5.55;1.60;;;;;;;10.22;47.14;98854.28;5305753;26;33154;-85
2023/03/14 03:16:23;;;;;;;1.12;1.00;;;;;;;9.97;47.95;98854.84;5305988;26;32342;-84
2023/03/14 03:18:51;;;;;;;0.20;0.20;;;;;;;9.77;48.64;98831.34;5306219;26;34518;-84
2023/03/14 03:21:23;;;;;;;2.92;1.50;;;;;;;9.93;48.30;98843.59;5324695;26;33407;-84
2023/03/14 03:23:51;;;;;;;2.83;1.20;;;;;;;10.09;48.03;98834.81;5324135;26;33979;-84
2023/03/14 03:26:19;;;;;;;0.47;0.47;;;;;;;10.00;48.42;98837.03;5287620;26;34070;-84
2023/03/14 03:28:47;;;;;;;0.30;0.30;;;;;;;9.85;48.66;98816.81;5287668;26;33613;-83
2023/03/14 03:31:14;;;;;;;0.65;0.65;;;;;;;10.01;48.16;98817.63;5305731;26;33627;-83
2023/03/14 03:33:42;;;;;;;0.40;0.40;;;;;;;9.92;48.58;98812.91;5305534;26;34208;-83
2023/03/14 03:36:10;;;;;;;0.43;0.43;;;;;;;10.32;47.49;98821.19;5305931;26;33802;-84
2023/03/14 03:38:38;;;;;;;2.12;1.95;;;;;;;10.12;48.03;98803.84;5305942;26;32652;-83
2023/03/14 03:41:07;;;;;;;1.10;1.08;;;;;;;9.91;48.50;98805.91;5305423;26;32273;-83
2023/03/14 03:43:35;;;;;;;1.20;1.10;;;;;;;10.23;47.77;98800.56;5305509;26;32738;-84
2023/03/14 03:46:04;;;;;;;0.65;0.65;;;;;;;10.05;48.27;98812.19;5323508;26;34199;-83
2023/03/14 03:48:37;;;;;;;0.47;0.47;;;;;;;10.40;47.42;98800.47;5306987;26;34498;-84
2023/03/14 03:51:13;;;;;;;1.42;1.40;;;;;;;10.19;47.82;98809.59;5324365;26;34098;-84
2023/03/14 03:53:42;;;;;;;0.22;0.22;;;;;;;10.04;48.38;98811.34;5305354;26;32910;-84
2023/03/14 03:56:15;;;;;;;0.17;0.17;;;;;;;9.86;48.76;98821.13;5324491;26;34481;-83
2023/03/14 03:58:43;;;;;;;1.65;1.20;;;;;;;10.45;47.41;98827.44;5305490;26;32578;-84
2023/03/14 04:01:12;;;;;;;0.57;0.57;;;;;;;10.22;47.97;98825.25;5305787;26;32759;-85
2023/03/14 04:03:42;;;;;;;0.20;0.20;;;;;;;10.21;47.99;98828.84;5323889;26;33840;-85
2023/03/14 04:06:12;;;;;;;0.90;0.90;;;;;;;10.10;48.34;98818.03;5324054;26;33920;-84
2023/03/14 04:08:41;;;;;;;0.17;0.17;;;;;;;10.18;48.49;98834.28;5323526;26;32844;-85
2023/03/14 04:11:10;;;;;;;1.87;1.77;;;;;;;10.45;47.66;98848.56;5323786;26;32483;-84
2023/03/14 04:13:39;;;;;;;2.72;1.50;;;;;;;10.34;48.10;98823.72;5323447;26;32067;-85
2023/03/14 04:16:21;;;;;;;0.30;0.30;;;;;;;10.47;47.60;98828.19;5324313;26;34659;-85
2023/03/14 04:18:50;;;;;;;0.10;0.10;;;;;;;10.56;47.53;98823.31;5305451;26;33108;-83
2023/03/14 04:21:20;;;;;;;0.80;0.80;;;;;;;10.50;47.77;98825.38;5324639;26;33256;-84
2023/03/14 04:23:48;;;;;;;3.17;2.58;;;;;;;10.33;48.01;98812.31;5305085;26;33454;-85
2023/03/14 04:26:16;;;;;;;21.45;0.82;;;;;;;10.45;47.88;98832.72;5305230;26;33740;-85
2023/03/14 04:28:44;;;;;;;0.28;0.28;;;;;;;10.48;47.87;98836.97;5323813;26;32965;-84
2023/03/14 04:31:18;;;;;;;1.92;1.55;;;;;;;10.37;48.12;98820.91;5305218;26;33126;-84
2023/03/14 04:33:47;;;;;;;0.40;0.40;;;;;;;10.67;47.51;98826.16;5305850;26;32374;-84
2023/03/14 04:36:15;;;;;;;0.03;0.03;;;;;;;10.57;47.56;98828.50;5305258;26;34171;-84
2023/03/14 04:38:46;;;;;;;2.35;2.17;;;;;;;10.92;46.71;98818.47;5305906;26;33956;-84
2023/03/14 04:41:18;;;;;;;0.52;0.52;;;;;;;10.71;47.09;98822.41;5324401;26;34172;-83
2023/03/14 04:43:47;;;;;;;0.93;0.85;;;;;;;10.74;47.36;98819.59;5305540;26;32661;-84
2023/03/14 04:46:15;;;;;;;3.10;0.95;;;;;;;10.59;47.50;98815.22;5322482;26;33874;-84
2023/03/14 04:48:44;;;;;;;3.20;1.77;;;;;;;10.54;47.84;98807.59;5324033;26;33367;-84
2023/03/14 04:51:13;;;;;;;1.30;1.20;;;;;;;10.56;47.70;98804.84;5305448;26;33237;-84
2023/03/14 04:53:41;;;;;;;0.03;0.03;;;;;;;10.57;47.81;98810.03;5323630;26;34603;-83
2023/03/14 04:56:09;;;;;;;0.50;0.40;;;;;;;10.73;47.42;98799.41;5305676;26;33625;-84
2023/03/14 04:58:38;;;;;;;1.25;0.93;;;;;;;10.67;47.52;98812.97;5305799;26;33089;-83
2023/03/14 05:01:09;;;;;;;0.52;0.52;;;;;;;10.68;47.27;98812.00;5323269;26;34094;-83
2023/03/14 05:03:41;;;;;;;0.30;0.30;;;;;;;10.43;47.95;98808.19;5323231;26;32505;-83
2023/03/14 05:06:10;;;;;;;12.55;1.20;;;;;;;10.50;47.85;98820.09;5323940;26;34767;-84
2023/03/14 05:08:38;;;;;;;0.35;0.35;;;;;;;10.25;48.21;98814.53;5305179;26;34007;-84
2023/03/14 05:11:06;;;;;;;1.15;1.05;;;;;;;10.37;47.75;98808.56;5287184;26;33886;-84
2023/03/14 05:16:11;;;;;;;0.28;0.28;;;;;;;10.49;47.60;98802.56;5306284;26;33163;-83
2023/03/14 05:18:40;;;;;;;0.85;0.85;;;;;;;10.64;47.30;98806.09;5304625;26;34768;-83
2023/03/14 05:21:09;;;;;;;0.37;0.32;;;;;;;10.61;47.10;98800.12;5323507;26;33293;-83
2023/03/14 05:23:40;;;;;;;0.80;0.80;;;;;;;10.52;47.63;98790.97;5324428;26;34198;-83
2023/03/14 05:26:08;;;;;;;2.70;1.15;;;;;;;10.59;47.43;98797.59;5305027;26;33430;-84
2023/03/14 05:28:37;;;;;;;0.60;0.60;;;;;;;10.69;46.94;98798.75;5305523;26;32755;-83
2023/03/14 05:31:08;;;;;;;1.02;0.95;;;;;;;10.45;47.55;98801.06;5323174;26;33156;-84
2023/03/14 05:33:40;;;;;;;1.80;1.27;;;;;;;10.77;46.73;98795.63;5324192;26;33353;-84
2023/03/14 05:36:18;;;;;;;0.32;0.32;;;;;;;10.02;48.49;98792.13;5324156;26;33701;-84
2023/03/14 05:38:49;;;;;;;4.62;0.98;;;;;;;10.13;48.45;98787.06;5323983;26;32679;-84
2023/03/14 05:41:18;;;;;;;3.80;1.05;;;;;;;10.68;46.98;98782.97;5323522;26;33078;-84
2023/03/14 05:43:48;;;;;;;0.82;0.82;;;;;;;10.74;46.70;98790.53;5306456;26;34007;-84
2023/03/14 05:46:18;;;;;;;0.88;0.47;;;;;;;10.38;47.47;98786.50;5305328;26;33134;-84
2023/03/14 05:48:48;;;;;;;4.87;1.27;;;;;;;10.71;46.63;98785.44;5287708;26;33561;-84
2023/03/14 05:51:20;;;;;;;0.93;0.85;;;;;;;10.36;47.93;98795.47;5305333;26;32210;-84
2023/03/14 05:53:49;;;;;;;2.03;1.25;;;;;;;10.70;46.87;98791.66;5322323;26;33587;-85
2023/03/14 05:56:25;;;;;;;1.67;1.55;;;;;;;10.44;47.50;98788.81;5304778;26;33987;-86
2023/03/14 05:58:54;;;;;;;0.45;0.25;;;;;;;10.79;46.57;98791.13;5304742;26;34183;-87
2023/03/14 06:01:27;;;;;;;1.67;1.58;;;;;;;10.52;47.09;98790.97;5303167;26;33994;-84
2023/03/14 06:04:06;;;;;;;0.40;0.40;;;;;;;10.83;46.70;98787.34;5322900;26;34365;-84
2023/03/14 06:06:34;;;;;;;0.30;0.30;;;;;;;10.95;46.22;98789.22;5302475;26;32922;-84
2023/03/14 06:09:06;;;;;;;0.88;0.88;;;;;;;10.93;45.99;98788.47;5321050;26;34858;-84
2023/03/14 06:11:36;;;;;;;0.20;0.20;;;;;;;11.00;45.82;98783.66;5321193;26;33676;-84
2023/03/14 06:14:05;;;;;;;1.30;0.57;;;;;;;11.21;45.26;98781.50;5303908;26;34842;-85
2023/03/14 06:16:34;;;;;;;0.47;0.30;;;;;;;11.19;45.85;98778.94;5304027;26;33479;-84
2023/03/14 06:19:11;;;;;;;2.28;0.65;;;;;;;11.24;45.66;98768.91;5304029;26;33817;-84
2023/03/14 06:21:41;;;;;;;10.98;1.12;;;;;;;10.86;46.71;98773.09;5321847;26;32221;-85
2023/03/14 06:24:10;;;;;;;1.05;1.00;;;;;;;10.87;46.73;98766.87;5303065;26;33203;-85
2023/03/14 06:26:38;;;;;;;0.52;0.52;;;;;;;11.25;45.56;98759.19;5302722;26;34628;-84
2023/03/14 06:29:07;;;;;;;1.60;1.50;;;;;;;11.24;45.54;98768.06;5303188;26;32761;-84
2023/03/14 06:31:37;;;;;;;0.45;0.45;;;;;;;11.44;45.16;98759.75;5339011;26;32639;-85
2023/03/14 06:34:05;;;;;;;5.97;1.40;;;;;;;11.11;45.51;98756.56;5303011;26;35312;-84
2023/03/14 06:36:35;;;;;;;1.30;1.00;;;;;;;11.21;45.65;98757.72;5284279;26;33259;-84
2023/03/14 06:39:05;;;;;;;0.75;0.75;;;;;;;11.71;44.93;98761.56;5303222;26;34303;-84
2023/03/14 06:41:35;;;;;;;0.30;0.30;;;;;;;11.86;44.29;98765.87;5302735;26;31908;-84
2023/03/14 06:44:08;;;;;;;1.30;0.73;;;;;;;11.90;44.50;98762.09;5339699;26;34058;-84
2023/03/14 06:46:37;;;;;;;2.42;1.90;;;;;;;11.99;43.94;98764.13;5324261;26;33999;-84
2023/03/14 06:49:05;;;;;;;1.27;1.17;;;;;;;12.23;43.54;98779.31;5304610;26;33891;-84
2023/03/14 06:51:34;;;;;;;0.88;0.77;;;;;;;12.32;43.45;98773.41;5323149;26;32691;-84
2023/03/14 06:54:07;;;;;;;0.75;0.75;;;;;;;12.53;42.88;98787.00;5323601;26;34695;-84
2023/03/14 06:56:35;;;;;;;0.75;0.75;;;;;;;12.57;42.87;98778.75;5305142;26;33413;-84
2023/03/14 06:59:07;;;;;;;0.73;0.73;;;;;;;12.20;43.45;98782.16;5304997;26;33493;-84
2023/03/14 07:01:36;;;;;;;6.32;1.35;;;;;;;12.61;42.88;98786.47;5305953;26;33381;-84
2023/03/14 07:04:05;;;;;;;2.28;1.25;;;;;;;12.88;42.61;98781.09;5322483;26;33897;-84
2023/03/14 07:06:36;;;;;;;18.83;4.10;;;;;;;13.04;42.01;98782.56;5285975;26;34085;-83
2023/03/14 07:09:05;;;;;;;1.08;1.08;;;;;;;12.81;42.83;98776.22;5302805;26;33629;-84
2023/03/14 07:11:34;;;;;;;1.23;1.15;;;;;;;13.14;42.66;98772.16;5302790;26;31930;-83
2023/03/14 07:14:06;;;;;;;5.20;1.75;;;;;;;12.96;42.72;98774.31;5302673;26;32935;-85
2023/03/14 07:16:34;;;;;;;;;;;;;;;13.35;42.15;98775.16;5322120;26;33344;-84
2023/03/14 07:19:03;;;;;;;0.25;0.17;;;;;;;13.60;41.31;98781.34;5302745;26;32761;-84
2023/03/14 07:21:32;;;;;;;23.73;6.30;;;;;;;13.65;41.42;98765.94;5322195;26;32947;-84
2023/03/14 07:24:03;;;;;;;1.45;1.12;;;;;;;13.41;41.31;98781.81;5322834;26;34582;-84
2023/03/14 07:26:33;;;;;;;0.50;0.50;;;;;;;13.76;40.98;98781.91;5321741;26;34454;-84
2023/03/14 07:29:03;;;;;;;2.60;2.05;;;;;;;13.48;41.88;98773.31;5323009;26;33637;-84
2023/03/14 07:31:34;;;;;;;1.42;1.27;;;;;;;13.62;42.13;98774.09;5323562;26;33043;-83
2023/03/14 07:34:05;;;;;;;0.30;0.30;;;;;;;13.83;41.38;98761.94;5322863;26;33846;-84
2023/03/14 07:36:35;;;;;;;0.80;0.75;;;;;;;13.79;41.36;98763.12;5323447;26;33756;-84
2023/03/14 07:39:04;;;;;;;30.37;13.75;;;;;;;13.97;41.18;98751.16;5322160;26;34666;-84
2023/03/14 07:41:34;;;;;;;2.42;2.08;;;;;;;14.00;41.27;98753.56;5303905;26;32837;-84
2023/03/14 07:44:05;;;;;;;2.50;0.73;;;;;;;13.83;41.14;98748.66;5285820;26;34389;-84
2023/03/14 07:46:34;;;;;;;0.40;0.40;;;;;;;14.15;40.78;98750.72;5303365;26;33367;-84
2023/03/14 07:49:02;;;;;;;1.23;1.17;;;;;;;14.38;40.39;98749.81;5303446;26;32826;-84
2023/03/14 07:51:37;;;;;;;3.50;2.33;;;;;;;14.45;40.78;98743.09;5321968;26;33569;-84
2023/03/14 07:56:52;;;;;;;1.92;1.73;;;;;;;14.57;40.53;98744.00;5322810;26;33265;-84
2023/03/14 07:59:26;;;;;;;1.77;1.65;;;;;;;14.34;40.30;98737.78;5303063;26;34128;-84
2023/03/14 08:01:59;;;;;;;3.03;1.85;;;;;;;14.52;40.46;98739.03;5303973;26;32781;-84
2023/03/14 08:04:28;;;;;;;5.35;1.87;;;;;;;14.79;40.43;98719.28;5287812;26;32790;-84
2023/03/14 08:06:57;;;;;;;2.45;1.77;;;;;;;15.03;39.80;98720.00;5323631;26;34340;-84
2023/03/14 08:09:27;;;;;;;1.00;0.80;;;;;;;15.34;39.17;98709.59;5305526;26;32977;-84
2023/03/14 08:11:56;;;;;;;3.78;0.82;;;;;;;15.52;38.56;98705.41;5287616;26;32231;-84
2023/03/14 08:14:25;;;;;;;0.40;0.40;;;;;;;15.44;38.24;98702.56;5302824;26;33131;-84
2023/03/14 08:16:55;;;;;;;0.10;0.10;;;;;;;15.54;38.21;98698.16;5324066;26;33813;-83
2023/03/14 08:19:24;;;;;;;1.40;1.15;;;;;;;15.60;38.63;98700.31;5323848;26;34595;-83
2023/03/14 08:21:55;;;;;;;1.77;1.65;;;;;;;15.84;37.98;98701.97;5324113;26;32645;-83
2023/03/14 08:24:25;;;;;;;0.00;0.00;;;;;;;16.07;38.14;98695.56;5323508;26;34058;-84
2023/03/14 08:26:54;;;;;;;1.08;0.90;;;;;;;16.22;37.61;98705.91;5305304;26;32859;-84
2023/03/14 08:29:25;;;;;;;1.45;0.85;;;;;;;16.43;37.66;98698.78;5323929;26;33875;-84
2023/03/14 08:31:54;;;;;;;1.45;0.73;;;;;;;16.93;36.93;98693.56;5304806;26;32858;-83
2023/03/14 08:34:25;;;;;;;4.85;3.72;;;;;;;17.01;36.45;98684.91;5305711;26;34300;-85
2023/03/14 08:37:05;;;;;;;1.35;1.17;;;;;;;17.13;36.74;98689.16;5306804;26;32764;-84
2023/03/14 08:39:53;;;;;;;0.70;0.70;;;;;;;16.96;36.64;98682.66;5323194;26;34774;-84
2023/03/14 08:42:25;;;;;;;0.30;0.30;;;;;;;16.40;36.54;98680.38;5305607;26;34130;-83
2023/03/14 08:44:53;;;;;;;25.95;1.60;;;;;;;16.98;36.14;98680.69;5323855;26;33853;-84
2023/03/14 08:47:22;;;;;;;0.50;0.50;;;;;;;17.24;36.35;98667.72;5305456;26;32821;-84
2023/03/14 08:49:53;;;;;;;0.20;0.20;;;;;;;17.38;35.46;98667.34;5306430;26;33262;-84
2023/03/14 08:52:31;;;;;;;;;;;;;;;17.39;34.62;98662.84;5324781;26;32140;-84
2023/03/14 08:55:00;;;;;;;10.00;4.07;;;;;;;17.90;35.36;98653.78;5323719;26;33989;-84
2023/03/14 08:57:29;;;;;;;1.10;0.73;;;;;;;17.10;35.52;98652.94;5287616;26;32978;-84
2023/03/14 08:59:57;;;;;;;1.98;1.65;;;;;;;17.33;35.98;98642.06;5323520;26;34531;-84
2023/03/14 09:02:28;;;;;;;15.90;4.10;;;;;;;17.61;35.68;98633.22;5306012;26;32653;-84
2023/03/14 09:04:56;;;;;;;4.47;1.42;;;;;;;17.76;35.08;98639.03;5305371;26;33914;-82
2023/03/14 09:07:28;;;;;;;1.67;1.58;;;;;;;18.27;34.31;98623.63;5305510;26;33841;-84
2023/03/14 09:09:57;;;;;;;0.57;0.57;;;;;;;18.34;34.05;98620.25;5305785;26;32572;-84
2023/03/14 09:12:29;;;;;;;1.55;1.45;;;;;;;18.44;34.08;98622.88;5323471;26;33005;-84
2023/03/14 09:14:57;;;;;;;0.90;0.80;;;;;;;18.25;34.76;98622.94;5323780;26;32439;-81
2023/03/14 09:17:25;;;;;;;4.25;1.48;;;;;;;18.87;33.44;98608.94;5324061;26;34385;-82
2023/03/14 09:19:53;;;;;;;5.37;2.25;;;;;;;18.65;33.96;98615.47;5323511;26;33860;-82
2023/03/14 09:22:23;;;;;;;7.20;1.25;;;;;;;19.34;33.19;98611.47;5305787;26;33175;-81
2023/03/14 09:24:52;;;;;;;0.80;0.80;;;;;;;18.95;32.83;98610.88;5305487;26;33856;-83
2023/03/14 09:27:20;;;;;;;0.98;0.98;;;;;;;19.22;32.73;98599.28;5341453;26;32947;-81
2023/03/14 09:29:50;;;;;;;0.28;0.28;;;;;;;19.29;33.03;98607.56;5304390;26;33719;-81
2023/03/14 09:32:19;;;;;;;0.40;0.40;;;;;;;19.54;33.39;98606.81;5323753;26;33937;-84
2023/03/14 09:34:47;;;;;;;0.73;0.73;;;;;;;19.32;32.78;98602.78;5323852;26;34647;-82
2023/03/14 09:37:16;;;;;;;11.18;5.35;;;;;;;19.95;32.47;98588.47;5304839;26;33242;-85
2023/03/14 09:39:45;;;;;;;0.68;0.68;;;;;;;19.62;32.58;98582.84;5323898;26;34486;-82
2023/03/14 09:42:19;;;;;;;0.85;0.85;;;;;;;19.58;32.98;98570.72;5322034;26;32569;-81
2023/03/14 09:45:00;;;;;;;1.17;0.62;;;;;;;19.42;33.08;98566.06;5320884;26;33690;-85
2023/03/14 09:47:29;;;;;;;;;;;;;;;19.69;33.29;98567.81;5302740;26;34169;-82
2023/03/14 09:50:01;;;;;;;2.10;1.67;;;;;;;18.83;33.67;98558.56;5321124;26;34164;-82
2023/03/14 09:52:31;;;;;;;17.43;1.20;;;;;;;19.48;33.97;98553.06;5319574;26;32733;-82
2023/03/14 09:55:18;;;;;;;0.45;0.43;;;;;;;19.23;33.51;98560.00;5303332;26;33694;-82
2023/03/14 09:57:51;;;;;;;0.32;0.30;;;;;;;19.72;32.49;98555.13;5302513;26;33251;-82
2023/03/14 10:00:24;;;;;;;0.08;0.08;;;;;;;19.97;31.97;98543.59;5320706;26;34786;-82
2023/03/14 10:02:55;;;;;;;0.68;0.52;;;;;;;19.99;31.73;98538.94;5320286;26;33056;-84
2023/03/14 10:05:25;;;;;;;1.12;0.88;;;;;;;19.77;31.47;98520.69;5320722;26;33967;-83
2023/03/14 10:07:54;;;;;;;2.33;0.77;;;;;;;20.02;31.03;98541.28;5302401;26;34079;-83
2023/03/14 10:10:25;;;;;;;0.60;0.45;;;;;;;19.64;31.62;98532.63;5301068;26;33020;-83
2023/03/14 10:13:00;;;;;;;0.88;0.65;;;;;;;19.66;31.07;98536.00;5320894;26;33168;-81
2023/03/14 10:15:33;;;;;;;0.10;0.10;;;;;;;20.17;31.24;98517.41;5321240;26;34306;-82
2023/03/14 10:18:02;;;;;;;1.23;0.82;;;;;;;20.13;30.46;98526.75;5303131;26;34436;-83
2023/03/14 10:20:38;;;;;;;7.10;0.75;;;;;;;20.11;31.00;98523.41;5302081;26;33169;-81
2023/03/14 10:23:11;;;;;;;0.00;0.00;;;;;;;20.42;30.81;98513.88;5322091;26;33736;-80
2023/03/14 10:25:53;;;;;;;2.25;0.62;;;;;;;20.59;30.67;98516.63;5320260;26;33001;-81
2023/03/14 10:28:27;;;;;;;1.08;0.22;;;;;;;20.42;30.42;98518.41;5321189;26;33936;-83
2023/03/14 10:30:56;;;;;;;0.13;0.13;;;;;;;20.27;31.12;98522.66;5319740;26;33563;-80
2023/03/14 10:33:31;;;;;;;0.95;0.45;;;;;;;20.52;30.67;98516.47;5320861;26;32623;-81
2023/03/14 10:36:18;;;;;;;0.10;0.10;;;;;;;20.81;30.51;98520.59;5301711;26;34525;-80
2023/03/14 10:38:47;;;;;;;0.15;0.03;;;;;;;20.45;30.99;98528.78;5339541;26;33671;-83
2023/03/14 10:41:25;;;;;;;0.00;0.00;;;;;;;20.55;30.42;98516.13;5320974;26;34249;-80
2023/03/14 10:43:59;;;;;;;0.10;0.10;;;;;;;20.87;30.51;98506.50;5320813;26;32581;-81
2023/03/14 10:46:31;;;;;;;0.03;0.03;;;;;;;20.53;30.76;98520.81;5321139;26;33426;-81
2023/03/14 10:49:31;;;;;;;0.00;0.00;;;;;;;20.52;30.41;98503.06;5305196;26;34996;-81
2023/03/14 10:52:22;;;;;;;0.00;0.00;;;;;;;21.02;30.10;98491.44;5322257;26;33429;-81
2023/03/14 10:55:08;;;;;;;0.00;0.00;;;;;;;21.44;29.97;98485.13;5305001;26;32034;-81
2023/03/14 10:57:41;;;;;;;0.00;0.00;;;;;;;21.45;29.54;98476.06;5322484;26;34245;-81
2023/03/14 11:00:17;;;;;;;0.15;0.10;;;;;;;21.68;28.69;98474.38;5322533;26;34479;-81
2023/03/14 11:03:06;;;;;;;0.00;0.00;;;;;;;21.38;29.30;98467.00;5321552;26;32988;-81
2023/03/14 11:05:46;;;;;;;0.00;0.00;;;;;;;21.43;29.21;98467.34;5323007;26;33597;-81
2023/03/14 11:08:36;;;;;;;0.00;0.00;;;;;;;21.68;29.69;98471.69;5303888;26;33129;-81
2023/03/14 11:11:14;;;;;;;0.22;0.22;;;;;;;21.55;29.46;98452.53;5321732;26;33895;-81
2023/03/14 11:14:20;;;;;;;0.40;0.40;;;;;;;21.54;29.07;98450.03;5303480;26;33929;-81
2023/03/14 11:17:01;;;;;;;0.30;0.30;;;;;;;21.67;29.68;98445.00;5321305;26;33236;-81
2023/03/14 11:20:03;;;;;;;0.98;0.20;;;;;;;21.63;29.02;98447.19;5322019;26;33858;-81
2023/03/14 11:22:47;;;;;;;0.08;0.08;;;;;;;21.76;28.82;98435.91;5294172;26;33840;-81
2023/03/14 11:25:31;;;;;;;0.15;0.15;;;;;;;21.38;29.11;98427.56;5322047;26;34393;-80
2023/03/14 11:28:26;;;;;;;0.17;0.17;;;;;;;21.65;29.05;98426.38;5321690;26;33000;-81
2023/03/14 11:31:12;;;;;;;0.00;0.00;;;;;;;21.64;29.08;98416.63;5339795;26;34202;-81
2023/03/14 11:34:18;;;;;;;0.00;0.00;;;;;;;22.22;29.37;98426.22;5321000;26;33981;-80
2023/03/14 11:37:05;;;;;;;0.00;0.00;;;;;;;22.02;28.42;98411.47;5322455;26;33995;-81
2023/03/14 11:39:43;;;;;;;0.93;0.90;;;;;;;22.12;28.80;98404.06;5323061;26;33160;-81
2023/03/14 11:42:17;;;;;;;0.82;0.75;;;;;;;21.52;28.97;98401.88;5285421;26;33423;-81
2023/03/14 11:44:49;;;;;;;0.20;0.20;;;;;;;21.45;29.44;98395.50;5321819;26;33572;-81
2023/03/14 11:47:37;;;;;;;1.85;0.90;;;;;;;21.73;29.02;98407.53;5303350;26;34347;-81
2023/03/14 11:50:19;;;;;;;0.00;0.00;;;;;;;21.80;28.63;98407.69;5322835;26;33232;-81
2023/03/14 11:52:52;;;;;;;0.15;0.15;;;;;;;21.93;28.31;98399.06;5303723;26;32936;-81
2023/03/14 11:55:27;;;;;;;3.20;1.75;;;;;;;21.15;29.66;98395.16;5321782;26;34268;-81
2023/03/14 11:58:14;;;;;;;6.82;2.20;;;;;;;21.50;29.20;98386.94;5341693;26;33774;-81
2023/03/14 12:00:43;;;;;;;0.28;0.17;;;;;;;21.21;29.39;98383.75;5321926;26;33169;-81